Time;durP1;ratioP1;P1;durP2;ratioP2;P2;SDS_P1;SDS_P2;PMS_P1;PMS_P2;Temp;Humidity;BMP_temperature;BMP_pressure;BME280_temperature;BME280_humidity;BME280_pressure;Samples;Min_cycle;Max_cycle;Signal;HPM_P1;HPM_P2
2022/08/25 00:01:22;;;;;;;;;11.50;11.50;;;;;25.60;45.87;101179.09;5078118;28;45414;-79
2022/08/25 00:03:47;;;;;;;;;12.00;12.00;;;;;25.59;46.85;101180.06;5079308;27;45325;-79
2022/08/25 00:06:13;;;;;;;;;18.00;13.25;;;;;25.53;47.10;101183.28;5078762;27;52991;-79
2022/08/25 00:08:39;;;;;;;;;14.50;13.00;;;;;25.48;46.77;101180.97;5078356;27;60970;-79
2022/08/25 00:11:06;;;;;;;;;12.25;11.25;;;;;25.44;46.51;101182.22;5079043;27;45432;-80
2022/08/25 00:13:32;;;;;;;;;10.00;10.00;;;;;25.44;47.34;101182.22;5078792;27;45467;-79
2022/08/25 00:15:57;;;;;;;;;13.00;11.25;;;;;25.46;47.07;101174.94;5078963;27;45462;-79
2022/08/25 00:18:22;;;;;;;;;18.00;14.25;;;;;25.47;47.64;101176.66;5078772;27;45294;-79
2022/08/25 00:20:48;;;;;;;;;13.25;12.50;;;;;25.46;47.81;101172.28;5078551;28;50653;-79
2022/08/25 00:23:13;;;;;;;;;11.00;10.50;;;;;25.42;47.89;101166.34;5077538;27;45529;-80
2022/08/25 00:25:39;;;;;;;;;13.00;12.00;;;;;25.38;48.00;101161.44;5078006;27;65014;-80
2022/08/25 00:28:04;;;;;;;;;16.50;13.00;;;;;25.33;48.25;101151.16;5077578;27;68075;-79
2022/08/25 00:30:30;;;;;;;;;13.50;11.75;;;;;25.29;48.06;101158.56;5077888;27;66068;-79
2022/08/25 00:32:55;;;;;;;;;12.25;9.75;;;;;25.23;47.60;101159.09;5077773;28;65222;-79
2022/08/25 00:35:22;;;;;;;;;13.00;11.00;;;;;25.23;48.45;101155.56;5076104;28;74136;-80
2022/08/25 00:37:47;;;;;;;;;13.75;10.50;;;;;25.19;48.14;101154.13;5078453;27;45290;-80
2022/08/25 00:40:13;;;;;;;;;10.25;10.25;;;;;25.17;48.64;101156.09;5077464;28;45347;-79
2022/08/25 00:42:39;;;;;;;;;14.75;12.00;;;;;25.19;48.63;101143.47;5078141;27;45292;-79
2022/08/25 00:45:06;;;;;;;;;8.75;8.75;;;;;25.22;48.60;101145.88;5078335;27;47146;-79
2022/08/25 00:47:31;;;;;;;;;12.00;11.00;;;;;25.23;48.82;101147.56;5078285;27;47442;-80
2022/08/25 00:49:58;;;;;;;;;13.75;9.00;;;;;25.19;49.12;101143.47;5078415;27;45400;-79
2022/08/25 00:52:27;;;;;;;;;13.25;12.00;;;;;25.15;48.55;101140.22;5077146;28;45375;-79
2022/08/25 00:55:00;;;;;;;;;16.50;12.25;;;;;25.14;49.38;101138.53;5077024;27;46356;-79
2022/08/25 00:57:32;;;;;;;;;10.00;9.75;;;;;25.10;49.26;101134.44;5076647;27;45288;-79
2022/08/25 00:59:58;;;;;;;;;13.75;11.75;;;;;25.09;49.00;101140.72;5077072;27;45413;-79
2022/08/25 01:02:23;;;;;;;;;13.00;12.00;;;;;25.07;49.36;101135.56;5077290;27;70307;-80
2022/08/25 01:04:49;;;;;;;;;11.75;11.00;;;;;25.04;49.55;101138.47;5078105;28;45361;-79
2022/08/25 01:07:17;;;;;;;;;10.75;8.75;;;;;24.99;49.77;101135.34;5077911;27;45367;-80
2022/08/25 01:09:43;;;;;;;;;9.25;9.25;;;;;24.92;49.83;101127.03;5078093;27;45473;-79
2022/08/25 01:12:09;;;;;;;;;10.50;9.25;;;;;24.88;50.10;101133.56;5076491;27;45548;-80
2022/08/25 01:14:35;;;;;;;;;9.00;9.00;;;;;24.85;49.79;101128.50;5077968;28;45469;-79
2022/08/25 01:17:00;;;;;;;;;11.50;9.25;;;;;24.87;50.18;101137.22;5078032;27;45986;-80
2022/08/25 01:19:27;;;;;;;;;13.75;11.00;;;;;24.87;50.30;101131.88;5076975;27;66893;-80
2022/08/25 01:21:53;;;;;;;;;11.25;10.25;;;;;24.84;50.68;101141.94;5077873;27;45474;-80
2022/08/25 01:24:46;;;;;;;;;11.50;9.75;;;;;24.82;50.68;101149.22;5077663;27;51451;-80
2022/08/25 01:27:12;;;;;;;;;9.00;9.00;;;;;24.74;50.09;101149.84;5076263;27;45346;-80
2022/08/25 01:29:37;;;;;;;;;10.25;9.50;;;;;24.71;49.69;101155.41;5076118;28;57213;-80
2022/08/25 01:32:07;;;;;;;;;11.00;9.25;;;;;24.72;50.45;101157.97;5076302;27;45409;-79
2022/08/25 01:34:35;;;;;;;;;11.50;11.50;;;;;24.66;50.67;101146.97;5077592;27;45582;-79
2022/08/25 01:37:01;;;;;;;;;11.00;9.25;;;;;24.59;50.69;101148.44;5077775;27;45766;-80
2022/08/25 01:39:29;;;;;;;;;11.00;11.00;;;;;24.58;50.80;101152.91;5077385;27;45386;-79
2022/08/25 01:42:08;;;;;;;;;13.00;9.00;;;;;24.58;50.96;101141.44;5076499;28;45442;-80
2022/08/25 01:44:37;;;;;;;;;10.00;8.25;;;;;24.51;51.17;101136.56;5076259;28;46595;-79
2022/08/25 01:47:03;;;;;;;;;9.75;9.25;;;;;24.45;50.96;101145.06;5077507;27;45268;-79
2022/08/25 01:49:29;;;;;;;;;11.00;10.00;;;;;24.44;51.86;101134.53;5076337;27;45374;-80
2022/08/25 01:52:12;;;;;;;;;10.75;10.75;;;;;24.41;51.29;101137.47;5077269;27;48785;-79
2022/08/25 01:54:37;;;;;;;;;11.50;9.25;;;;;24.41;51.96;101135.63;5075512;28;46451;-80
2022/08/25 01:57:03;;;;;;;;;12.25;10.75;;;;;24.38;51.10;101127.06;5076305;27;73021;-80
2022/08/25 01:59:29;;;;;;;;;9.00;8.00;;;;;24.37;51.52;101130.66;5077312;27;45386;-79
2022/08/25 02:01:54;;;;;;;;;13.00;11.50;;;;;24.33;51.87;101120.31;5076203;27;69970;-79
2022/08/25 02:04:20;;;;;;;;;10.00;10.00;;;;;24.29;52.26;101121.53;5076435;28;70107;-79
2022/08/25 02:06:45;;;;;;;;;13.00;10.25;;;;;24.25;52.29;101124.53;5077246;27;45299;-79
2022/08/25 02:09:13;;;;;;;;;10.50;9.75;;;;;24.21;52.00;101115.97;5075894;27;68646;-79
2022/08/25 02:11:45;;;;;;;;;9.75;9.00;;;;;24.21;51.27;101117.78;5076037;27;45279;-80
2022/08/25 02:14:12;;;;;;;;;11.00;10.00;;;;;24.21;50.46;101107.97;5076978;27;46549;-80
2022/08/25 02:16:40;;;;;;;;;9.25;8.50;;;;;24.21;50.96;101107.16;5077048;27;45445;-80
2022/08/25 02:19:08;;;;;;;;;9.25;9.25;;;;;24.17;51.26;101105.72;5076373;27;45379;-79
2022/08/25 02:21:34;;;;;;;;;11.00;11.00;;;;;24.11;51.55;101099.91;5077194;27;45289;-79
2022/08/25 02:24:00;;;;;;;;;11.00;10.50;;;;;24.08;53.24;101104.63;5076317;27;46196;-80
2022/08/25 02:26:25;;;;;;;;;12.00;11.00;;;;;23.95;52.65;101105.59;5076739;28;45451;-79
2022/08/25 02:28:51;;;;;;;;;13.00;11.00;;;;;23.88;51.25;101101.72;5077025;27;45298;-79
2022/08/25 02:31:18;;;;;;;;;10.50;9.25;;;;;23.89;50.31;101091.97;5075455;27;45319;-79
2022/08/25 02:33:44;;;;;;;;;12.75;10.75;;;;;23.93;50.45;101093.41;5076672;28;46495;-79
2022/08/25 02:36:09;;;;;;;;;9.75;9.75;;;;;23.95;50.04;101073.69;5076431;28;45524;-79
2022/08/25 02:38:35;;;;;;;;;12.75;9.75;;;;;23.99;50.07;101078.78;5076124;27;45370;-79
2022/08/25 02:41:08;;;;;;;;;13.75;12.00;;;;;23.99;49.25;101068.97;5076761;27;45364;-79
2022/08/25 02:43:33;;;;;;;;;10.50;9.00;;;;;24.00;48.78;101069.84;5076483;27;47012;-79
2022/08/25 02:45:58;;;;;;;;;11.50;10.00;;;;;23.99;49.75;101066.31;5075580;28;72330;-79
2022/08/25 02:48:24;;;;;;;;;10.00;10.00;;;;;23.95;49.77;101065.72;5075736;28;65436;-80
2022/08/25 02:50:51;;;;;;;;;10.00;9.50;;;;;23.93;50.07;101064.16;5076684;28;45589;-79
2022/08/25 02:53:18;;;;;;;;;9.25;8.25;;;;;23.90;49.76;101065.28;5076122;27;46317;-79
2022/08/25 02:55:44;;;;;;;;;8.75;8.00;;;;;23.89;50.25;101062.72;5076329;27;45407;-79
2022/08/25 02:58:09;;;;;;;;;13.00;10.00;;;;;23.87;49.93;101070.81;5076542;27;45303;-79
2022/08/25 03:00:35;;;;;;;;;9.00;8.00;;;;;23.86;48.96;101069.13;5075578;28;59421;-79
2022/08/25 03:03:01;;;;;;;;;11.00;11.00;;;;;23.85;49.24;101070.09;5076117;27;45529;-79
2022/08/25 03:05:26;;;;;;;;;10.00;9.00;;;;;23.87;48.86;101069.97;5076300;27;45381;-80
2022/08/25 03:07:51;;;;;;;;;11.25;10.75;;;;;23.84;49.55;101065.72;5056749;27;69142;-79
2022/08/25 03:10:19;;;;;;;;;10.00;9.00;;;;;23.81;49.40;101070.44;5075587;28;62449;-79
2022/08/25 03:12:45;;;;;;;;;12.75;10.50;;;;;23.78;49.92;101074.19;5076210;27;45406;-80
2022/08/25 03:15:15;;;;;;;;;8.00;8.00;;;;;23.73;49.76;101074.53;5075389;27;66411;-80
2022/08/25 03:17:40;;;;;;;;;10.75;9.50;;;;;23.70;49.76;101079.22;5076178;27;45427;-80
2022/08/25 03:20:06;;;;;;;;;8.75;8.00;;;;;23.66;49.08;101076.00;5075720;27;54269;-79
2022/08/25 03:22:32;;;;;;;;;11.00;8.25;;;;;23.65;49.30;101062.84;5075586;27;46313;-80
2022/08/25 03:26:52;;;;;;;;;9.25;8.75;;;;;23.66;48.70;101064.50;5076040;28;45331;-79
2022/08/25 03:27:43;;;;;;;;;10.25;9.25;;;;;23.66;48.00;101061.84;5076044;27;45227;-79
2022/08/25 03:30:09;;;;;;;;;8.25;8.00;;;;;23.66;48.03;101062.72;5072758;28;62998;-79
2022/08/25 03:32:34;;;;;;;;;9.50;9.00;;;;;23.67;47.84;101048.44;5074324;27;46366;-79
2022/08/25 03:35:00;;;;;;;;;11.25;9.50;;;;;23.65;48.09;101031.78;5074582;28;73304;-79
2022/08/25 03:37:26;;;;;;;;;9.00;9.00;;;;;23.67;48.90;101032.50;5075673;27;45349;-79
2022/08/25 03:39:51;;;;;;;;;10.00;10.00;;;;;23.66;48.55;101025.50;5075818;28;45460;-79
2022/08/25 03:42:16;;;;;;;;;8.25;8.25;;;;;23.65;48.15;101020.31;5074710;28;75620;-79
2022/08/25 03:44:42;;;;;;;;;11.00;9.00;;;;;23.64;48.16;101015.94;5074801;28;73395;-79
2022/08/25 03:47:07;;;;;;;;;10.75;10.75;;;;;23.64;48.50;101018.63;5074659;28;69829;-79
2022/08/25 03:49:32;;;;;;;;;11.25;9.00;;;;;23.61;48.95;101013.56;5074864;28;67413;-79
2022/08/25 03:51:58;;;;;;;;;11.25;9.00;;;;;23.57;48.61;101011.13;5074294;27;67567;-80
2022/08/25 03:54:24;;;;;;;;;9.00;9.00;;;;;23.54;48.48;101010.53;5074148;28;45471;-80
2022/08/25 03:56:50;;;;;;;;;10.50;10.00;;;;;23.51;48.96;101024.91;5075685;27;45182;-80
2022/08/25 03:59:16;;;;;;;;;10.00;8.75;;;;;23.51;49.10;101027.56;5075597;27;45225;-80
2022/08/25 04:01:43;;;;;;;;;9.75;8.25;;;;;23.51;48.88;101029.38;5074169;27;46237;-80
2022/08/25 04:04:10;;;;;;;;;12.75;9.00;;;;;23.49;49.54;101033.97;5074226;28;45870;-80
2022/08/25 04:06:37;;;;;;;;;10.75;9.00;;;;;23.45;49.64;101045.81;5074183;28;45700;-80
2022/08/25 04:09:02;;;;;;;;;10.50;9.75;;;;;23.39;50.00;101045.31;5074410;27;45358;-80
2022/08/25 04:11:28;;;;;;;;;4.75;4.00;;;;;23.34;50.13;101052.78;5075181;28;46544;-79
2022/08/25 04:13:56;;;;;;;;;11.50;9.00;;;;;23.28;49.95;101050.63;5075412;27;45377;-79
2022/08/25 04:16:24;;;;;;;;;10.25;10.25;;;;;23.28;49.90;101047.13;5074401;28;45505;-79
2022/08/25 04:18:51;;;;;;;;;13.50;10.75;;;;;23.27;50.52;101051.59;5075467;27;45425;-79
2022/08/25 04:21:17;;;;;;;;;10.50;9.25;;;;;23.23;50.04;101047.47;5073733;27;45587;-79
2022/08/25 04:23:44;;;;;;;;;9.75;9.00;;;;;23.17;50.34;101046.13;5075302;27;45808;-80
2022/08/25 04:26:22;;;;;;;;;10.25;8.25;;;;;23.16;50.67;101047.09;5074253;27;45343;-79
2022/08/25 04:28:48;;;;;;;;;11.00;10.00;;;;;23.15;50.85;101047.22;5075420;27;45349;-80
2022/08/25 04:31:15;;;;;;;;;7.75;7.75;;;;;23.12;50.80;101055.41;5074964;27;52468;-79
2022/08/25 04:33:40;;;;;;;;;13.25;9.00;;;;;23.05;50.76;101046.22;5054512;28;45449;-79
2022/08/25 04:36:07;;;;;;;;;11.50;9.00;;;;;23.00;50.97;101057.19;5068249;28;45674;-80
2022/08/25 04:38:33;;;;;;;;;9.50;9.00;;;;;22.96;51.04;101056.56;5075174;27;45538;-79
2022/08/25 04:41:01;;;;;;;;;10.25;9.00;;;;;22.91;51.43;101057.88;5075712;28;45237;-79
2022/08/25 04:43:28;;;;;;;;;14.75;10.75;;;;;22.87;50.82;101067.88;5078453;27;45247;-79
2022/08/25 04:45:54;;;;;;;;;11.25;9.75;;;;;22.84;51.95;101068.09;5078548;27;45444;-79
2022/08/25 04:48:20;;;;;;;;;10.75;10.25;;;;;22.78;51.57;101065.91;5078242;27;45360;-79
2022/08/25 04:50:45;;;;;;;;;12.50;10.50;;;;;22.73;51.55;101071.59;5078381;27;46353;-79
2022/08/25 04:53:11;;;;;;;;;10.00;8.50;;;;;22.71;51.56;101076.13;5077390;27;69431;-79
2022/08/25 04:55:41;;;;;;;;;12.00;10.75;;;;;22.72;51.86;101082.31;5076857;27;47933;-80
2022/08/25 04:58:07;;;;;;;;;13.00;12.00;;;;;22.72;52.01;101084.97;5078317;27;45356;-79
2022/08/25 05:00:36;;;;;;;;;15.50;11.75;;;;;22.72;51.99;101085.81;5078028;27;45342;-80
2022/08/25 05:03:02;;;;;;;;;13.25;11.50;;;;;22.76;51.68;101083.78;5077760;27;45315;-80
2022/08/25 05:05:27;;;;;;;;;11.00;11.00;;;;;22.77;52.11;101096.06;5078327;27;45302;-80
2022/08/25 05:07:53;;;;;;;;;12.50;12.00;;;;;22.75;52.15;101100.63;5077086;27;45304;-80
2022/08/25 05:10:19;;;;;;;;;12.25;10.25;;;;;22.73;52.16;101099.91;5077185;27;70811;-80
2022/08/25 05:12:44;;;;;;;;;12.75;12.00;;;;;22.73;52.21;101102.56;5077822;27;45404;-79
2022/08/25 05:17:54;;;;;;;;;14.00;12.00;;;;;22.74;52.85;101105.09;5077627;28;45245;-79
2022/08/25 05:20:19;;;;;;;;;12.50;11.25;;;;;22.76;53.38;101107.66;5076896;27;74541;-80
2022/08/25 05:22:45;;;;;;;;;13.25;12.75;;;;;22.75;53.47;101109.47;5077860;27;45284;-79
2022/08/25 05:25:11;;;;;;;;;13.50;12.00;;;;;22.75;53.15;101111.25;5077941;27;45302;-80
2022/08/25 05:27:36;;;;;;;;;14.50;12.50;;;;;22.79;53.44;101115.38;5077845;27;45193;-79
2022/08/25 05:30:01;;;;;;;;;13.00;12.25;;;;;22.82;53.96;101117.78;5076775;27;69634;-79
2022/08/25 05:32:27;;;;;;;;;17.00;13.00;;;;;22.86;53.51;101119.25;5076955;27;45428;-79
2022/08/25 05:34:53;;;;;;;;;14.75;14.00;;;;;22.90;54.20;101120.75;5077643;27;45716;-79
2022/08/25 05:37:18;;;;;;;;;13.25;11.75;;;;;22.92;54.22;101118.81;5077690;27;45440;-80
2022/08/25 05:39:43;;;;;;;;;15.00;13.25;;;;;22.94;53.33;101119.53;5076461;28;70141;-80
2022/08/25 05:42:09;;;;;;;;;15.25;14.50;;;;;22.99;53.94;101113.88;5076576;28;68558;-79
2022/08/25 05:44:34;;;;;;;;;14.00;13.00;;;;;23.00;54.42;101112.94;5076871;28;65666;-79
2022/08/25 05:46:59;;;;;;;;;19.75;15.75;;;;;22.97;54.31;101114.00;5076535;28;56710;-80
2022/08/25 05:49:25;;;;;;;;;18.25;15.00;;;;;22.94;54.62;101114.22;5076020;27;45962;-79
2022/08/25 05:51:50;;;;;;;;;16.50;14.75;;;;;22.93;53.89;101111.69;5077120;27;45439;-79
2022/08/25 05:54:16;;;;;;;;;16.25;14.00;;;;;22.96;54.33;101114.13;5076479;28;45385;-79
2022/08/25 05:56:41;;;;;;;;;13.50;13.50;;;;;23.02;54.49;101110.16;5077335;27;45317;-80
2022/08/25 05:59:07;;;;;;;;;14.75;13.00;;;;;23.04;54.76;101116.22;5076990;27;46101;-82
2022/08/25 06:04:21;;;;;;;;;12.00;12.00;;;;;23.03;54.29;101114.50;5077489;28;45391;-80
2022/08/25 06:06:47;;;;;;;;;12.75;12.75;;;;;23.07;54.74;101110.66;5075996;27;45539;-79
2022/08/25 06:09:13;;;;;;;;;15.00;14.75;;;;;23.10;53.86;101108.63;5077205;27;46417;-79
2022/08/25 06:11:39;;;;;;;;;14.50;12.75;;;;;23.13;55.06;101105.75;5075910;27;45385;-81
2022/08/25 06:14:04;;;;;;;;;11.00;8.50;;;;;23.16;55.18;101107.31;5077339;27;45467;-82
2022/08/25 06:16:30;;;;;;;;;14.75;12.00;;;;;23.17;55.44;101103.72;5075502;28;45468;-81
2022/08/25 06:18:55;;;;;;;;;18.50;14.25;;;;;23.16;55.39;101099.34;5076955;27;45458;-81
2022/08/25 06:21:21;;;;;;;;;16.25;12.75;;;;;23.14;55.78;101099.50;5077008;27;45337;-81
2022/08/25 06:23:48;;;;;;;;;15.50;13.25;;;;;23.15;55.68;101100.31;5076811;27;45374;-82
2022/08/25 06:26:13;;;;;;;;;15.50;13.75;;;;;23.15;54.89;101095.00;5077017;27;45385;-82
2022/08/25 06:28:38;;;;;;;;;13.50;12.50;;;;;23.16;55.73;101100.22;5076768;28;46257;-82
2022/08/25 06:31:04;;;;;;;;;13.75;13.00;;;;;23.17;54.05;101096.56;5076528;28;45363;-81
2022/08/25 06:33:29;;;;;;;;;11.50;11.00;;;;;23.21;54.87;101105.16;5076641;27;45325;-81
2022/08/25 06:35:55;;;;;;;;;11.25;10.25;;;;;23.23;54.28;101105.88;5076636;28;45339;-82
2022/08/25 06:38:21;;;;;;;;;12.25;12.25;;;;;23.26;53.52;101104.81;5075454;28;46714;-81
2022/08/25 06:40:48;;;;;;;;;14.00;11.00;;;;;23.29;53.24;101105.44;5076797;27;45250;-82
2022/08/25 06:43:14;;;;;;;;;12.50;11.75;;;;;23.35;53.64;101104.13;5076875;27;45431;-82
2022/08/25 06:45:39;;;;;;;;;12.50;11.50;;;;;23.38;51.52;101102.06;5076434;28;45355;-82
2022/08/25 06:48:05;;;;;;;;;16.00;13.50;;;;;23.43;53.90;101104.34;5076404;27;46380;-82
2022/08/25 06:50:30;;;;;;;;;13.75;11.50;;;;;23.47;51.68;101104.97;5076412;27;46722;-81
2022/08/25 06:52:55;;;;;;;;;12.00;10.25;;;;;23.50;51.04;101102.09;5075712;27;67091;-82
2022/08/25 06:55:21;;;;;;;;;13.50;13.50;;;;;23.53;50.57;101097.38;5075145;28;45735;-82
2022/08/25 06:57:46;;;;;;;;;16.25;14.50;;;;;23.57;50.23;101104.13;5075185;28;75289;-81
2022/08/25 07:00:12;;;;;;;;;15.00;11.75;;;;;23.63;51.85;101109.94;5076079;28;45426;-81
2022/08/25 07:02:37;;;;;;;;;14.25;13.75;;;;;23.67;52.34;101114.03;5075321;28;45460;-79
2022/08/25 07:05:04;;;;;;;;;15.25;15.25;;;;;23.69;53.25;101115.59;5076207;27;45440;-79
2022/08/25 07:07:29;;;;;;;;;13.25;13.25;;;;;23.75;51.19;101116.94;5076116;27;46344;-79
2022/08/25 07:09:54;;;;;;;;;15.50;14.00;;;;;23.82;50.86;101118.19;5075664;28;59265;-79
2022/08/25 07:12:20;;;;;;;;;21.00;14.75;;;;;23.89;52.23;101114.06;5075305;28;68085;-79
2022/08/25 07:14:45;;;;;;;;;19.25;13.75;;;;;23.96;51.41;101111.78;5075906;28;45475;-79
2022/08/25 07:17:12;;;;;;;;;17.25;13.75;;;;;24.03;50.95;101115.63;5075286;27;68129;-79
2022/08/25 07:19:37;;;;;;;;;14.75;13.50;;;;;24.11;50.96;101115.88;5076129;27;45468;-79
2022/08/25 07:22:02;;;;;;;;;16.50;14.75;;;;;24.18;51.39;101115.38;5076109;27;45403;-79
2022/08/25 07:24:28;;;;;;;;;18.75;13.75;;;;;24.23;50.11;101115.84;5075735;27;50111;-79
2022/08/25 07:26:53;;;;;;;;;12.25;12.25;;;;;24.28;50.01;101114.50;5076056;27;45383;-79
2022/08/25 07:29:22;;;;;;;;;15.00;12.25;;;;;24.31;48.90;101116.94;5074991;28;63800;-79
2022/08/25 07:31:48;;;;;;;;;17.00;13.50;;;;;24.38;49.72;101114.59;5074632;27;45368;-79
2022/08/25 07:36:58;;;;;;;;;12.75;11.50;;;;;24.51;48.36;101123.25;5075822;28;45938;-79
2022/08/25 07:39:25;;;;;;;;;19.50;13.75;;;;;24.57;48.60;101118.44;5075769;28;45285;-79
2022/08/25 07:41:51;;;;;;;;;19.00;15.00;;;;;24.64;47.79;101119.63;5075936;27;45184;-79
2022/08/25 07:44:17;;;;;;;;;17.75;13.25;;;;;24.72;47.53;101123.34;5075647;27;45535;-79
2022/08/25 07:46:42;;;;;;;;;15.50;12.50;;;;;24.79;48.88;101115.69;5074347;28;46027;-79
2022/08/25 07:49:08;;;;;;;;;20.00;14.50;;;;;24.84;48.67;101115.31;5074404;28;45437;-78
2022/08/25 07:51:33;;;;;;;;;16.75;14.25;;;;;24.92;47.26;101104.88;5075653;27;45309;-79
2022/08/25 07:53:59;;;;;;;;;12.00;12.00;;;;;25.03;46.83;101106.63;5075016;27;53004;-79
2022/08/25 07:56:24;;;;;;;;;16.75;14.00;;;;;25.17;46.46;101111.63;5075207;27;46330;-79
2022/08/25 07:58:49;;;;;;;;;16.50;13.75;;;;;25.34;46.82;101101.41;5075224;28;49362;-82
2022/08/25 08:01:17;;;;;;;;;15.50;13.75;;;;;25.53;46.17;101104.16;5075576;28;45433;-82
2022/08/25 08:03:42;;;;;;;;;19.00;14.00;;;;;25.75;46.00;101103.13;5075727;27;45401;-82
2022/08/25 08:06:09;;;;;;;;;15.25;12.25;;;;;25.96;44.41;101108.41;5075335;28;45413;-82
2022/08/25 08:08:42;;;;;;;;;18.00;13.50;;;;;26.18;43.85;101106.53;5074313;27;45973;-79
2022/08/25 08:11:13;;;;;;;;;17.50;13.00;;;;;26.38;43.84;101115.41;5073953;28;45372;-79
2022/08/25 08:13:39;;;;;;;;;13.25;12.50;;;;;26.49;42.76;101119.78;5074385;28;45373;-79
2022/08/25 08:16:08;;;;;;;;;14.00;10.25;;;;;26.52;42.02;101138.19;5076277;27;45921;-79
2022/08/25 08:18:33;;;;;;;;;16.25;13.75;;;;;26.53;41.40;101155.88;5078867;27;45469;-79
2022/08/25 08:20:59;;;;;;;;;20.75;14.25;;;;;26.51;41.07;101155.19;5077981;27;66562;-79
2022/08/25 08:23:26;;;;;;;;;17.25;15.00;;;;;26.51;41.97;101128.50;5078077;28;65782;-79
2022/08/25 08:25:52;;;;;;;;;17.50;13.00;;;;;26.52;42.03;101131.00;5078442;27;46354;-79
2022/08/25 08:28:17;;;;;;;;;16.00;12.00;;;;;26.54;41.83;101152.22;5060708;28;45372;-79
2022/08/25 08:30:42;;;;;;;;;19.00;15.75;;;;;26.59;42.04;101153.50;5077665;28;68621;-79
2022/08/25 08:33:08;;;;;;;;;17.00;15.00;;;;;26.65;42.38;101138.78;5077844;27;66653;-80
2022/08/25 08:35:33;;;;;;;;;16.00;14.00;;;;;26.72;42.31;101133.72;5077578;27;71357;-79
2022/08/25 08:37:59;;;;;;;;;16.00;14.75;;;;;26.81;41.87;101147.06;5077633;27;64613;-79
2022/08/25 08:40:24;;;;;;;;;14.25;14.00;;;;;26.96;42.23;101152.84;5078408;27;45367;-79
2022/08/25 08:43:08;;;;;;;;;15.00;14.00;;;;;27.14;41.30;101133.44;5077887;27;62487;-79
2022/08/25 08:45:36;;;;;;;;;14.75;13.00;;;;;27.22;41.14;101150.41;5077399;28;46658;-80
2022/08/25 08:48:08;;;;;;;;;15.25;13.75;;;;;27.32;41.32;101142.44;5077246;28;46061;-79
2022/08/25 08:51:16;;;;;;;;;13.00;13.00;;;;;27.39;40.35;101153.38;5078390;27;45398;-79
2022/08/25 08:53:45;;;;;;;;;13.00;12.50;;;;;27.35;41.42;101160.84;5055820;28;45501;-79
2022/08/25 08:56:22;;;;;;;;;10.75;10.75;;;;;27.33;40.81;101164.66;5038345;28;45458;-79
2022/08/25 08:59:08;;;;;;;;;14.00;12.00;;;;;27.31;40.44;101169.31;5039066;28;45271;-79
2022/08/25 09:01:51;;;;;;;;;13.00;11.25;;;;;27.27;41.12;101171.41;5038944;28;45416;-79
2022/08/25 09:04:29;;;;;;;;;14.50;14.00;;;;;27.23;40.18;101170.00;5039261;28;45332;-79
2022/08/25 09:06:56;;;;;;;;;12.75;12.00;;;;;27.24;39.47;101169.00;5055713;28;45485;-80
2022/08/25 09:09:28;;;;;;;;;15.00;12.25;;;;;27.26;39.42;101175.06;5038446;28;45950;-79
2022/08/25 09:11:59;;;;;;;;;11.00;10.75;;;;;27.23;39.62;101167.31;5055633;28;45446;-79
2022/08/25 09:14:33;;;;;;;;;12.50;11.50;;;;;27.21;40.02;101158.59;5055702;28;45453;-79
2022/08/25 09:17:25;;;;;;;;;13.00;12.00;;;;;27.24;39.64;101152.94;5055511;28;46413;-79
2022/08/25 09:20:28;;;;;;;;;12.50;11.00;;;;;27.27;39.07;101151.88;5038524;28;45407;-79
2022/08/25 09:22:56;;;;;;;;;15.00;13.00;;;;;27.28;38.91;101148.19;4972607;28;45424;-79
2022/08/25 09:25:44;;;;;;;;;12.00;11.00;;;;;27.33;39.66;101159.31;4991213;28;45448;-79
2022/08/25 09:28:20;;;;;;;;;10.50;10.25;;;;;27.39;39.43;101156.06;4995336;28;46642;-79
2022/08/25 09:31:03;;;;;;;;;9.50;9.50;;;;;27.44;38.76;101160.97;4979112;28;45819;-79
2022/08/25 09:33:31;;;;;;;;;13.50;11.00;;;;;27.50;38.69;101147.88;4959781;28;45373;-79
2022/08/25 09:35:57;;;;;;;;;10.25;8.50;;;;;27.54;38.68;101153.75;4951378;28;45302;-80
2022/08/25 09:38:23;;;;;;;;;11.50;10.00;;;;;27.58;38.76;101142.66;4975246;28;46261;-79
2022/08/25 09:40:52;;;;;;;;;11.50;10.25;;;;;27.62;38.99;101153.91;4975666;28;45788;-80
2022/08/25 09:43:34;;;;;;;;;11.25;9.50;;;;;27.65;38.64;101153.59;4959438;28;45440;-80
2022/08/25 09:46:11;;;;;;;;;10.50;10.50;;;;;27.71;38.03;101147.69;4959326;28;45411;-80
2022/08/25 09:48:49;;;;;;;;;11.75;10.75;;;;;27.78;38.71;101151.41;4975450;28;45417;-79
2022/08/25 09:51:33;;;;;;;;;7.50;7.25;;;;;27.85;38.81;101150.84;4959198;28;45497;-79
2022/08/25 09:54:13;;;;;;;;;6.75;6.75;;;;;27.90;38.21;101153.97;4958623;28;45603;-79
2022/08/25 09:56:51;;;;;;;;;10.00;7.75;;;;;27.95;37.68;101155.22;4975467;28;45550;-80
2022/08/25 09:59:27;;;;;;;;;8.25;8.25;;;;;27.98;37.93;101146.03;5030852;27;45446;-80
2022/08/25 10:01:55;;;;;;;;;9.00;8.75;;;;;28.04;38.04;101142.75;5076086;28;45841;-80
2022/08/25 10:04:38;;;;;;;;;9.00;9.00;;;;;28.10;37.55;101144.84;5076252;28;45321;-80
2022/08/25 10:07:21;;;;;;;;;8.00;8.00;;;;;28.14;37.46;101140.06;5077134;27;45334;-80
2022/08/25 10:09:58;;;;;;;;;12.25;9.50;;;;;28.21;37.24;101141.09;5058847;27;46302;-80
2022/08/25 10:12:40;;;;;;;;;10.75;8.75;;;;;28.31;37.26;101138.41;5075953;27;45765;-80
2022/08/25 10:15:22;;;;;;;;;8.50;8.50;;;;;28.37;36.54;101133.25;5076008;28;45411;-80
2022/08/25 10:17:49;;;;;;;;;6.75;6.25;;;;;28.43;37.02;101122.94;5075887;28;45449;-79
2022/08/25 10:20:19;;;;;;;;;6.00;6.00;;;;;28.54;36.75;101122.75;5076981;28;46364;-80
2022/08/25 10:22:48;;;;;;;;;6.25;6.25;;;;;28.63;35.96;101124.53;5076617;27;45365;-80
2022/08/25 10:25:16;;;;;;;;;9.00;8.50;;;;;28.70;35.17;101114.88;5075840;28;46045;-79
2022/08/25 10:27:57;;;;;;;;;8.00;8.00;;;;;28.76;35.37;101106.22;5075865;28;45464;-80
2022/08/25 10:30:30;;;;;;;;;8.50;8.50;;;;;28.81;35.34;101112.94;5075493;27;45347;-80
2022/08/25 10:33:17;;;;;;;;;9.25;8.25;;;;;28.93;35.21;101106.34;5075570;27;45527;-80
2022/08/25 10:36:03;;;;;;;;;4.50;4.50;;;;;29.03;35.13;101101.75;5075631;28;45341;-79
2022/08/25 10:38:36;;;;;;;;;7.75;7.00;;;;;29.10;34.16;101092.09;5075024;28;45454;-80
2022/08/25 10:41:08;;;;;;;;;7.50;7.25;;;;;29.19;33.58;101090.31;5075426;27;45486;-80
2022/08/25 10:43:50;;;;;;;;;8.50;8.00;;;;;29.30;33.97;101084.69;5075453;27;45393;-80
2022/08/25 10:46:28;;;;;;;;;9.75;8.00;;;;;29.42;33.41;101079.91;5075576;28;45506;-79
2022/08/25 10:49:19;;;;;;;;;7.00;7.00;;;;;29.54;33.15;101078.63;5076618;27;45329;-80
2022/08/25 10:52:09;;;;;;;;;10.25;10.00;;;;;29.68;32.70;101085.25;5074867;28;46469;-80
2022/08/25 10:55:04;;;;;;;;;9.25;7.75;;;;;29.84;32.78;101080.97;5075018;27;45974;-80
2022/08/25 10:57:57;;;;;;;;;7.00;7.00;;;;;30.03;32.24;101082.53;5074032;27;45310;-80
2022/08/25 11:00:28;;;;;;;;;7.25;7.00;;;;;30.16;32.12;101079.38;5075252;27;45485;-79
2022/08/25 11:03:12;;;;;;;;;10.25;9.25;;;;;30.28;31.74;101078.88;5075061;28;45437;-79
2022/08/25 11:05:39;;;;;;;;;10.00;8.50;;;;;30.40;30.96;101086.66;5076090;28;45794;-80
2022/08/25 11:08:09;;;;;;;;;7.75;7.00;;;;;30.52;30.83;101081.81;5075221;28;45450;-80
2022/08/25 11:10:44;;;;;;;;;8.25;7.50;;;;;30.70;31.27;101093.22;5075156;27;45216;-80
2022/08/25 11:13:17;;;;;;;;;8.00;8.00;;;;;30.85;30.83;101086.19;5076044;27;45476;-80
2022/08/25 11:15:55;;;;;;;;;11.75;7.00;;;;;31.02;30.67;101078.13;5075037;28;45353;-80
2022/08/25 11:18:21;;;;;;;;;7.75;7.75;;;;;31.16;30.32;101080.09;5075177;28;45394;-79
2022/08/25 11:21:07;;;;;;;;;8.25;8.00;;;;;31.32;30.13;101086.47;5074609;27;45522;-79
2022/08/25 11:23:40;;;;;;;;;8.75;8.25;;;;;31.45;30.35;101086.75;5074787;28;45569;-80
2022/08/25 11:26:10;;;;;;;;;9.50;7.50;;;;;31.61;30.14;101081.38;5074684;27;45315;-80
2022/08/25 11:28:47;;;;;;;;;11.50;9.00;;;;;31.80;30.27;101072.03;5074866;27;45421;-79
2022/08/25 11:31:14;;;;;;;;;7.25;7.25;;;;;32.04;30.43;101081.03;5076042;27;45246;-80